Time;durP1;ratioP1;P1;durP2;ratioP2;P2;SDS_P1;SDS_P2;PMS_P1;PMS_P2;Temp;Humidity;BMP_temperature;BMP_pressure;BME280_temperature;BME280_humidity;BME280_pressure;Samples;Min_cycle;Max_cycle;Signal;HPM_P1;HPM_P2
2021/04/22 00:04:32;;;;;;;14.67;13.17;;;;;;;10.04;79.67;99908.88;20725319;28;20297;-59
2021/04/22 00:14:33;;;;;;;14.13;11.90;;;;;;;9.93;80.43;99903.44;20665763;28;20231;-57
2021/04/22 00:24:33;;;;;;;15.40;13.27;;;;;;;9.85;79.38;99908.44;20700073;28;20227;-62
2021/04/22 00:34:33;;;;;;;17.30;12.70;;;;;;;9.87;78.99;99937.66;20689666;28;20785;-54
2021/04/22 00:44:34;;;;;;;13.23;11.83;;;;;;;9.78;79.93;99940.94;20675045;28;20225;-53
2021/04/22 00:54:36;;;;;;;12.33;11.03;;;;;;;9.60;80.29;99930.56;20635972;28;20258;-56
2021/04/22 01:04:37;;;;;;;13.37;10.93;;;;;;;9.42;80.24;99928.25;20626667;28;20470;-63
2021/04/22 01:14:39;;;;;;;12.10;10.80;;;;;;;9.33;81.81;99943.00;20640843;28;20580;-59
2021/04/22 01:24:40;;;;;;;11.33;9.70;;;;;;;9.06;83.80;99960.78;20620168;28;20236;-59
2021/04/22 01:34:41;;;;;;;9.40;8.40;;;;;;;8.76;85.26;99964.41;20640556;28;20264;-55
2021/04/22 01:44:41;;;;;;;10.90;9.87;;;;;;;8.52;87.84;99982.75;20617849;28;20235;-57
2021/04/22 01:54:42;;;;;;;13.02;10.65;;;;;;;8.22;90.71;99990.72;20643618;28;20230;-61
2021/04/22 02:04:43;;;;;;;12.70;11.40;;;;;;;8.00;92.10;99990.28;20626708;28;20225;-73
2021/04/22 02:14:44;;;;;;;11.17;9.97;;;;;;;7.94;90.58;100001.28;20631893;28;20229;-72
2021/04/22 02:24:44;;;;;;;8.67;7.77;;;;;;;7.92;89.70;100006.69;20648810;28;20279;-63
2021/04/22 02:34:45;;;;;;;7.90;7.10;;;;;;;7.96;89.58;100015.34;20638441;28;20230;-69
2021/04/22 02:44:45;;;;;;;8.47;7.53;;;;;;;8.15;87.60;100036.38;20652437;28;20226;-54
2021/04/22 02:54:46;;;;;;;8.25;6.95;;;;;;;8.25;86.41;100016.28;20631167;28;20230;-53
2021/04/22 03:04:46;;;;;;;7.33;6.63;;;;;;;8.22;84.23;100000.50;20651026;28;20228;-53
2021/04/22 03:14:47;;;;;;;10.67;6.97;;;;;;;8.09;84.87;100036.75;20629876;28;20889;-58
2021/04/22 03:24:47;;;;;;;6.33;5.53;;;;;;;8.09;81.87;100045.56;20647753;28;20301;-53
2021/04/22 03:34:48;;;;;;;6.00;5.40;;;;;;;8.01;80.23;100081.50;20644679;28;20225;-65
2021/04/22 03:44:49;;;;;;;6.10;4.80;;;;;;;7.76;79.45;100096.16;20641403;28;20242;-72
2021/04/22 03:54:50;;;;;;;7.70;5.57;;;;;;;7.10;95.46;100077.72;20712689;28;20231;-74
2021/04/22 04:04:51;;;;;;;9.30;6.17;;;;;;;5.87;100.00;100092.00;20694181;28;20241;-65
2021/04/22 04:14:51;;;;;;;8.87;5.77;;;;;;;5.58;100.00;100121.63;20671982;28;20303;-63
2021/04/22 04:24:52;;;;;;;8.90;5.73;;;;;;;5.50;100.00;100134.38;20677293;28;20223;-68
2021/04/22 04:34:52;;;;;;;8.27;5.33;;;;;;;5.49;100.00;100153.81;20691728;28;20985;-59
2021/04/22 04:44:54;;;;;;;7.07;5.60;;;;;;;5.23;100.00;100102.97;20617434;28;20464;-61
2021/04/22 04:54:55;;;;;;;5.17;3.10;;;;;;;5.55;100.00;100133.25;20632407;28;20278;-61
2021/04/22 05:04:57;;;;;;;6.05;3.63;;;;;;;5.62;100.00;100133.81;20619481;28;20229;-55
2021/04/22 05:14:58;;;;;;;5.20;2.73;;;;;;;5.80;100.00;100148.81;20632356;28;20237;-67
2021/04/22 05:25:00;;;;;;;5.67;3.30;;;;;;;6.16;100.00;100155.97;20629200;28;20233;-69
2021/04/22 05:35:00;;;;;;;5.60;3.13;;;;;;;6.39;100.00;100168.97;20626937;28;20308;-52
2021/04/22 05:45:01;;;;;;;6.07;3.73;;;;;;;6.83;100.00;100175.53;20633472;28;20244;-54
2021/04/22 05:55:03;;;;;;;4.17;3.20;;;;;;;7.43;100.00;100170.59;20628722;28;20234;-52
2021/04/22 06:05:05;;;;;;;8.73;3.87;;;;;;;7.31;97.12;100179.19;20654863;28;20226;-54
2021/04/22 06:15:06;;;;;;;5.47;3.93;;;;;;;7.30;96.49;100185.44;20638640;28;20315;-55
2021/04/22 06:25:08;;;;;;;7.63;3.83;;;;;;;7.95;90.60;100184.53;20724957;28;20260;-53
2021/04/22 06:35:10;;;;;;;9.03;3.70;;;;;;;8.82;86.53;100198.16;20715039;28;20316;-70
2021/04/22 06:45:13;;;;;;;6.13;2.87;;;;;;;8.92;78.14;100204.69;20716751;28;20244;-55
2021/04/22 06:55:18;;;;;;;6.53;2.60;;;;;;;8.71;67.15;100221.88;20728262;28;20242;-71
2021/04/22 07:05:19;;;;;;;5.67;2.67;;;;;;;8.27;68.26;100227.91;20705821;28;21035;-67
2021/04/22 07:15:20;;;;;;;12.67;2.80;;;;;;;7.89;62.78;100231.81;20722040;28;20238;-62
2021/04/22 07:25:23;;;;;;;11.83;3.40;;;;;;;7.74;66.42;100248.59;20703340;28;20247;-76
2021/04/22 07:35:24;;;;;;;15.27;3.33;;;;;;;7.61;65.01;100224.47;20722980;28;20232;-66
2021/04/22 07:45:28;;;;;;;8.37;3.30;;;;;;;7.97;62.40;100223.47;20702032;28;20225;-56
2021/04/22 07:55:32;;;;;;;8.63;3.13;;;;;;;8.48;63.89;100262.22;20719820;28;20237;-56
2021/04/22 08:05:36;;;;;;;10.77;3.20;;;;;;;8.80;57.67;100274.56;20694603;28;20304;-54
2021/04/22 08:15:37;;;;;;;9.97;2.97;;;;;;;8.09;59.19;100278.59;20709648;28;20241;-53
2021/04/22 08:25:41;;;;;;;7.70;2.83;;;;;;;7.97;57.66;100285.41;20714879;28;20232;-67
2021/04/22 08:35:43;;;;;;;10.80;3.20;;;;;;;8.08;60.90;100290.16;20702999;28;20700;-53
2021/04/22 08:45:44;;;;;;;6.07;2.70;;;;;;;8.10;58.15;100293.56;20718173;28;20236;-69
2021/04/22 08:55:46;;;;;;;11.60;3.40;;;;;;;8.19;55.91;100303.72;20697766;28;20225;-53
2021/04/22 09:05:47;;;;;;;9.50;3.90;;;;;;;8.53;59.15;100297.41;20716953;28;20233;-53
2021/04/22 09:15:49;;;;;;;12.53;3.37;;;;;;;9.17;57.62;100277.75;20697921;28;20227;-56
2021/04/22 09:26:06;;;;;;;9.83;3.60;;;;;;;10.25;56.55;100298.63;20712406;28;20266;-55
2021/04/22 09:36:15;;;;;;;10.77;3.43;;;;;;;10.37;54.59;100305.84;20700779;28;20228;-53
2021/04/22 09:46:20;;;;;;;8.53;3.03;;;;;;;10.62;53.65;100304.28;20702709;28;20239;-58
2021/04/22 09:56:21;;;;;;;9.47;3.00;;;;;;;10.37;54.79;100273.84;20706859;28;20238;-54
2021/04/22 10:06:21;;;;;;;5.40;2.75;;;;;;;10.52;55.10;100287.13;20699260;28;20970;-53
2021/04/22 10:16:32;;;;;;;12.00;3.50;;;;;;;10.30;53.29;100288.50;20712819;28;20305;-53
2021/04/22 10:26:32;;;;;;;9.47;3.47;;;;;;;11.06;56.42;100304.88;20689854;28;20216;-57
2021/04/22 10:36:34;;;;;;;10.40;3.20;;;;;;;11.85;53.11;100283.41;20713270;28;20229;-55
2021/04/22 10:46:37;;;;;;;7.20;3.03;;;;;;;12.07;52.44;100297.97;20708608;28;20240;-55
2021/04/22 10:56:37;;;;;;;4.90;2.53;;;;;;;12.40;54.54;100298.25;20724371;28;20683;-53
2021/04/22 11:06:40;;;;;;;5.93;3.00;;;;;;;11.87;54.47;100307.38;20713297;28;20229;-54
2021/04/22 11:16:45;;;;;;;5.43;3.07;;;;;;;12.77;51.48;100314.31;20715242;28;20253;-54
2021/04/22 11:26:46;;;;;;;8.03;3.60;;;;;;;12.05;51.66;100305.25;20719237;28;20224;-54
2021/04/22 11:36:48;;;;;;;5.73;3.10;;;;;;;12.24;51.30;100300.28;20707364;28;20244;-63
2021/04/22 11:46:49;;;;;;;6.43;3.27;;;;;;;12.19;52.28;100292.63;20722138;28;20232;-56
2021/04/22 11:56:58;;;;;;;8.37;3.07;;;;;;;12.16;51.56;100274.09;20700767;28;20640;-53
2021/04/22 12:06:59;;;;;;;5.73;2.83;;;;;;;12.48;51.11;100277.13;20721484;28;20233;-63
2021/04/22 12:17:00;;;;;;;5.63;3.70;;;;;;;12.21;53.34;100263.06;20699382;28;20250;-53
2021/04/22 12:27:00;;;;;;;6.10;3.57;;;;;;;12.07;51.72;100260.53;20726088;28;20286;-56
2021/04/22 12:37:12;;;;;;;7.53;3.90;;;;;;;12.65;50.38;100256.31;20705369;28;20237;-57
2021/04/22 12:47:14;;;;;;;9.00;3.10;;;;;;;12.47;50.24;100254.00;20716397;28;20228;-54
2021/04/22 12:57:16;;;;;;;6.43;2.73;;;;;;;12.19;47.95;100227.56;20712369;28;20313;-54
2021/04/22 13:07:26;;;;;;;5.43;2.80;;;;;;;12.15;51.51;100239.44;20702434;28;20290;-54
2021/04/22 13:17:27;;;;;;;6.67;3.00;;;;;;;12.69;49.49;100253.25;20716077;28;20224;-61
2021/04/22 13:27:28;;;;;;;2.63;2.27;;;;;;;12.73;47.40;100237.84;20695649;28;20225;-56
2021/04/22 13:37:28;;;;;;;6.97;2.67;;;;;;;12.48;47.96;100245.00;20716300;28;20226;-56
2021/04/22 13:47:29;;;;;;;6.97;2.60;;;;;;;12.52;46.23;100242.97;20696158;28;20224;-57
2021/04/22 13:57:31;;;;;;;7.73;2.53;;;;;;;12.61;46.26;100197.63;20719591;28;20225;-51
2021/04/22 14:07:32;;;;;;;6.93;2.60;;;;;;;12.35;45.35;100297.69;20706078;28;20555;-62
2021/04/22 14:17:34;;;;;;;6.20;3.10;;;;;;;10.58;57.43;100322.28;20726453;28;20232;-57
2021/04/22 14:27:34;;;;;;;5.40;2.37;;;;;;;9.53;62.71;100334.16;20725412;28;20233;-54
2021/04/22 14:37:35;;;;;;;6.03;2.30;;;;;;;9.06;63.50;100350.22;20719922;28;20259;-57
2021/04/22 14:47:35;;;;;;;7.00;2.87;;;;;;;9.40;64.79;100349.16;20731978;28;20796;-53
2021/04/22 14:57:36;;;;;;;3.60;2.47;;;;;;;9.84;62.00;100348.28;20711817;28;20269;-54
2021/04/22 15:07:36;;;;;;;3.87;2.00;;;;;;;9.85;59.15;100344.66;20731651;28;20287;-54
2021/04/22 15:17:37;;;;;;;4.00;2.60;;;;;;;9.37;63.72;100349.31;20717109;28;20462;-58
2021/04/22 15:27:41;;;;;;;5.50;2.20;;;;;;;8.79;61.83;100347.34;20728894;28;20227;-54
2021/04/22 15:37:43;;;;;;;6.17;2.70;;;;;;;9.06;63.61;100370.69;20712607;28;20469;-64
2021/04/22 15:47:44;;;;;;;4.27;2.27;;;;;;;8.98;61.38;100361.31;20721856;28;20317;-57
2021/04/22 15:57:46;;;;;;;7.17;3.17;;;;;;;8.87;65.10;100346.91;20720213;28;20228;-64
2021/04/22 16:07:46;;;;;;;5.57;2.60;;;;;;;8.61;68.81;100393.59;20715521;28;20281;-59
2021/04/22 16:17:47;;;;;;;7.70;3.27;;;;;;;8.42;70.76;100385.78;20727048;28;20238;-55
2021/04/22 16:27:47;;;;;;;6.25;4.45;;;;;;;8.29;72.18;100384.69;20703586;28;20236;-54
2021/04/22 16:37:48;;;;;;;5.20;3.17;;;;;;;8.05;72.85;100399.28;20722959;28;20304;-62
2021/04/22 16:47:49;;;;;;;6.20;2.87;;;;;;;7.97;72.50;100399.66;20702167;28;20574;-54
2021/04/22 16:57:50;;;;;;;3.60;2.97;;;;;;;8.01;73.05;100406.53;20722622;28;20233;-67
2021/04/22 17:07:58;;;;;;;5.60;3.23;;;;;;;7.87;76.14;100409.03;20708423;28;20572;-54
2021/04/22 17:17:59;;;;;;;5.03;3.57;;;;;;;7.69;77.40;100429.47;20733730;28;20750;-54
2021/04/22 17:28:00;;;;;;;5.77;3.33;;;;;;;7.24;77.73;100428.13;20710972;28;20430;-56
2021/04/22 17:38:00;;;;;;;5.67;3.60;;;;;;;6.84;77.54;100453.06;20750269;28;20224;-64
2021/04/22 17:48:01;;;;;;;28.23;14.43;;;;;;;6.67;75.35;100498.06;20729872;28;20256;-64
2021/04/22 17:58:02;;;;;;;7.87;3.97;;;;;;;6.67;75.33;100559.06;20710186;28;20308;-62
2021/04/22 18:08:08;;;;;;;4.67;1.87;;;;;;;5.99;74.84;100562.91;20722179;28;20299;-54
2021/04/22 18:18:11;;;;;;;6.23;1.90;;;;;;;5.68;75.77;100571.19;20698845;28;20258;-53
2021/04/22 18:28:12;;;;;;;13.90;4.43;;;;;;;5.69;77.41;100534.97;20719175;28;20698;-53
2021/04/22 18:38:14;;;;;;;9.53;3.57;;;;;;;5.71;77.48;100536.66;20700994;28;20668;-53
2021/04/22 18:48:16;;;;;;;5.77;2.73;;;;;;;5.39;79.27;100535.31;20712822;28;20247;-53
2021/04/22 18:58:16;;;;;;;3.90;1.93;;;;;;;4.91;83.24;100534.56;20714791;28;20247;-74
2021/04/22 19:08:17;;;;;;;5.72;2.13;;;;;;;4.61;85.75;100534.75;20719270;28;20866;-54
2021/04/22 19:18:18;;;;;;;7.10;3.10;;;;;;;4.36;88.12;100539.19;20734980;28;20304;-57
2021/04/22 19:28:18;;;;;;;28.77;14.93;;;;;;;4.12;91.40;100554.09;20732942;28;20562;-57
2021/04/22 19:38:19;;;;;;;10.90;4.60;;;;;;;3.88;92.99;100553.16;20729602;28;20621;-52
2021/04/22 19:48:25;;;;;;;9.13;4.03;;;;;;;3.68;96.46;100562.66;20729545;28;20318;-64
2021/04/22 19:58:26;;;;;;;6.63;3.43;;;;;;;3.51;98.37;100557.91;20730129;28;20766;-58
2021/04/22 20:08:28;;;;;;;7.17;3.30;;;;;;;3.40;100.00;100554.72;20728767;28;20236;-53
2021/04/22 20:18:31;;;;;;;8.00;4.50;;;;;;;3.34;100.00;100557.56;20728442;28;20225;-54
2021/04/22 20:28:31;;;;;;;6.93;4.43;;;;;;;3.36;100.00;100553.13;20728113;28;20577;-52
2021/04/22 20:38:36;;;;;;;10.77;5.53;;;;;;;3.40;100.00;100560.88;20709794;28;20233;-53
2021/04/22 20:48:39;;;;;;;11.03;6.17;;;;;;;3.41;100.00;100561.72;20676131;28;20279;-61
2021/04/22 20:58:40;;;;;;;12.90;7.80;;;;;;;3.47;100.00;100556.28;20675966;28;20306;-65
2021/04/22 21:08:41;;;;;;;33.13;15.18;;;;;;;3.60;100.00;100563.75;20673359;28;20754;-57
2021/04/22 21:18:41;;;;;;;14.73;8.90;;;;;;;3.71;100.00;100550.22;20673204;28;20229;-58
2021/04/22 21:28:42;;;;;;;16.02;8.65;;;;;;;3.66;100.00;100559.19;20674740;28;20232;-77
2021/04/22 21:38:42;;;;;;;29.90;14.33;;;;;;;3.71;100.00;100550.22;20670574;28;20944;-53
2021/04/22 21:48:43;;;;;;;13.60;7.07;;;;;;;3.61;100.00;100562.84;20669451;28;21443;-63
2021/04/22 21:58:43;;;;;;;10.03;6.07;;;;;;;3.54;100.00;100568.34;20695924;28;20283;-70
2021/04/22 22:08:44;;;;;;;50.70;27.00;;;;;;;3.49;100.00;100576.44;20720037;28;20225;-75
2021/04/22 22:18:45;;;;;;;22.27;10.97;;;;;;;3.52;100.00;100571.03;20721085;28;20636;-75
2021/04/22 22:28:47;;;;;;;11.53;6.80;;;;;;;3.50;100.00;100572.03;20720661;28;20460;-75
2021/04/22 22:38:48;;;;;;;10.20;6.43;;;;;;;3.53;100.00;100562.22;20733143;28;20291;-70
2021/04/22 22:48:48;;;;;;;27.30;16.57;;;;;;;3.92;100.00;100575.91;20736600;28;20245;-66
2021/04/22 22:58:49;;;;;;;14.17;7.97;;;;;;;3.88;100.00;100574.28;20739043;28;20229;-73
2021/04/22 23:08:50;;;;;;;12.10;6.50;;;;;;;3.63;100.00;100570.69;20693994;28;20183;-75
2021/04/22 23:18:51;;;;;;;8.37;5.87;;;;;;;3.53;100.00;100562.22;20673233;28;20539;-63
2021/04/22 23:38:46;;;;;;;9.97;5.70;;;;;;;3.65;100.00;100558.31;21129771;27;20529;-73
2021/04/22 23:48:47;;;;;;;9.13;5.60;;;;;;;3.64;100.00;100561.88;21129394;28;20270;-72
2021/04/22 23:58:48;;;;;;;8.67;5.67;;;;;;;3.65;100.00;100563.59;21128141;28;20486;-59
